Terminal Aerodrome Forecast
Issued by NWS Sterling, VA

Current Version | Previous Version | Text Only | Print | Product List | Glossary Off
Versions: 1 2 3 4 5 6 7 8 9 10 11 12 13 14 15 16 17 18 19 20 21 22 23 24 25 26 27 28

000
FTUS41 KLWX 132300
TAFDCA
TAF
KDCA 132333Z 1400/1424 19014KT P6SM BKN250
     FM141000 18011KT P6SM BKN020 BKN250
     FM141300 19014G21KT P6SM SCT040 BKN150
     FM142100 19014KT P6SM SCT040 OVC090=

USA.gov is the U.S. government's official web portal to all federal, state and local government web resources and services.